Time;durP1;ratioP1;P1;durP2;ratioP2;P2;SDS_P1;SDS_P2;PMS_P1;PMS_P2;Temp;Humidity;BMP_temperature;BMP_pressure;BME280_temperature;BME280_humidity;BME280_pressure;Samples;Min_cycle;Max_cycle;Signal;HPM_P1;HPM_P2
2022/07/10 00:20:03;;;;;;;6.15;1.35;;;15.70;99.90;;;;;;6755977;88;20515;-80
2022/07/10 00:30:04;;;;;;;3.33;0.90;;;15.50;99.90;;;;;;6752589;88;20577;-80
2022/07/10 00:40:06;;;;;;;5.65;1.30;;;15.50;99.90;;;;;;6751732;88;20201;-80
2022/07/10 00:50:07;;;;;;;5.37;1.70;;;15.00;99.90;;;;;;6752144;88;20771;-79
2022/07/10 01:00:09;;;;;;;4.45;1.05;;;14.80;99.90;;;;;;6749528;88;20217;-80
2022/07/10 01:10:10;;;;;;;6.60;1.70;;;14.80;99.90;;;;;;6750297;88;20229;-80
2022/07/10 01:20:11;;;;;;;4.85;1.35;;;14.50;99.90;;;;;;6750241;88;20188;-79
2022/07/10 01:30:11;;;;;;;9.57;1.55;;;14.30;99.90;;;;;;6750214;88;20213;-80
2022/07/10 01:40:12;;;;;;;4.60;1.60;;;14.10;99.90;;;;;;6748632;88;20196;-79
2022/07/10 01:50:13;;;;;;;5.77;1.40;;;14.00;99.90;;;;;;6751621;88;20180;-80
2022/07/10 02:00:13;;;;;;;4.90;1.57;;;13.80;99.90;;;;;;6750563;88;20525;-80
2022/07/10 02:10:14;;;;;;;4.05;1.45;;;13.80;99.90;;;;;;6750881;88;20646;-80
2022/07/10 02:20:14;;;;;;;3.78;1.25;;;13.70;99.90;;;;;;6749619;88;20293;-79
2022/07/10 02:30:15;;;;;;;2.80;1.20;;;13.60;99.90;;;;;;6749266;88;20269;-80
2022/07/10 02:40:15;;;;;;;5.70;1.10;;;13.50;99.90;;;;;;6749860;88;20268;-80
2022/07/10 02:50:16;;;;;;;4.12;1.20;;;13.40;99.90;;;;;;6750529;88;20334;-79
2022/07/10 03:00:17;;;;;;;5.47;1.43;;;13.50;99.90;;;;;;6746853;88;20834;-79
2022/07/10 03:10:18;;;;;;;6.65;1.40;;;13.60;99.90;;;;;;6752150;88;20474;-81
2022/07/10 03:20:18;;;;;;;5.80;1.40;;;13.70;99.90;;;;;;6750631;88;20700;-80
2022/07/10 03:30:19;;;;;;;4.55;1.20;;;13.70;99.90;;;;;;6728329;88;20204;-80
2022/07/10 03:40:20;;;;;;;6.35;1.10;;;13.80;99.90;;;;;;6743156;88;20335;-79
2022/07/10 03:50:20;;;;;;;8.02;1.52;;;13.70;99.90;;;;;;6747965;88;20302;-80
2022/07/10 04:00:26;;;;;;;5.15;1.40;;;13.80;99.90;;;;;;6731769;88;20749;-79
2022/07/10 04:10:29;;;;;;;3.42;1.00;;;13.80;99.90;;;;;;6731518;88;20174;-80
2022/07/10 04:20:30;;;;;;;5.18;1.30;;;13.80;99.90;;;;;;6726563;88;20754;-80
2022/07/10 04:30:30;;;;;;;3.97;1.20;;;13.90;99.90;;;;;;6731003;88;20229;-80
2022/07/10 04:40:31;;;;;;;5.85;1.25;;;13.80;99.90;;;;;;6731754;88;20201;-80
2022/07/10 04:50:31;;;;;;;5.80;1.52;;;13.70;99.90;;;;;;6732652;88;20210;-80
2022/07/10 05:00:32;;;;;;;6.50;1.20;;;13.70;99.90;;;;;;6733980;88;20609;-80
2022/07/10 05:10:33;;;;;;;5.15;1.27;;;13.80;99.90;;;;;;6733569;88;20478;-80
2022/07/10 05:20:35;;;;;;;6.80;1.42;;;14.00;99.90;;;;;;6730595;88;20223;-79
2022/07/10 05:30:35;;;;;;;4.47;1.40;;;14.50;99.90;;;;;;6665292;88;20719;-80
2022/07/10 05:40:36;;;;;;;5.28;1.45;;;14.70;99.90;;;;;;6733460;88;20214;-80
2022/07/10 05:50:36;;;;;;;7.40;1.60;;;15.20;99.90;;;;;;6729934;88;20221;-80
2022/07/10 06:00:37;;;;;;;6.65;1.37;;;15.40;99.90;;;;;;6727522;88;20251;-80
2022/07/10 06:10:39;;;;;;;6.90;1.58;;;15.40;99.90;;;;;;6726091;88;20205;-79
2022/07/10 06:20:40;;;;;;;4.35;1.42;;;15.70;99.90;;;;;;6728019;88;20676;-79
2022/07/10 06:30:40;;;;;;;3.85;1.20;;;16.70;99.90;;;;;;6728420;88;20356;-79
2022/07/10 06:40:44;;;;;;;5.25;1.10;;;16.90;99.90;;;;;;6723657;88;20240;-79
2022/07/10 06:50:45;;;;;;;5.75;1.17;;;17.50;99.90;;;;;;6727491;88;20200;-80
2022/07/10 07:00:46;;;;;;;2.22;0.82;;;17.60;99.90;;;;;;6727230;88;20736;-79
2022/07/10 07:10:46;;;;;;;4.30;1.12;;;17.00;99.90;;;;;;6727321;88;20207;-79
2022/07/10 07:31:06;;;;;;;4.68;1.77;;;18.20;99.90;;;;;;6726728;88;20185;-80
2022/07/10 07:41:06;;;;;;;4.50;1.60;;;18.60;99.90;;;;;;6728472;88;20214;-79
2022/07/10 07:51:07;;;;;;;2.65;1.37;;;18.20;99.90;;;;;;6727486;88;20238;-79
2022/07/10 08:01:07;;;;;;;6.17;1.57;;;18.20;99.90;;;;;;6727836;88;20226;-78
2022/07/10 08:11:08;;;;;;;5.75;1.60;;;18.00;99.90;;;;;;6726603;88;20668;-81
2022/07/10 08:21:08;;;;;;;4.37;1.55;;;17.40;99.90;;;;;;6733142;88;20225;-80
2022/07/10 08:31:09;;;;;;;7.35;1.70;;;17.60;99.90;;;;;;6740880;88;20288;-79
2022/07/10 08:41:12;;;;;;;6.28;1.40;;;17.80;99.90;;;;;;6740221;88;20258;-81
2022/07/10 08:51:34;;;;;;;6.15;1.73;;;18.40;99.90;;;;;;6741565;88;20623;-81
2022/07/10 09:01:35;;;;;;;5.00;1.60;;;18.50;99.90;;;;;;6741140;88;20196;-80
2022/07/10 09:11:38;;;;;;;6.45;1.77;;;18.40;99.90;;;;;;6741786;88;20634;-80
2022/07/10 09:21:38;;;;;;;8.18;2.00;;;18.40;99.90;;;;;;6740661;88;20607;-82
2022/07/10 09:32:02;;;;;;;5.32;2.10;;;18.20;99.90;;;;;;6736331;88;20192;-81
2022/07/10 09:42:03;;;;;;;5.00;2.05;;;18.40;99.90;;;;;;6737157;88;20197;-81
2022/07/10 09:52:04;;;;;;;5.18;2.22;;;18.60;99.90;;;;;;6740858;88;20188;-81
2022/07/10 10:02:07;;;;;;;5.47;2.47;;;18.40;99.90;;;;;;6741155;88;20191;-81
2022/07/10 10:12:23;;;;;;;5.80;2.70;;;18.50;99.90;;;;;;6736388;88;20209;-80
2022/07/10 10:22:25;;;;;;;6.32;2.80;;;19.10;99.90;;;;;;6739016;88;20270;-80
2022/07/10 10:32:27;;;;;;;5.53;2.87;;;19.70;99.90;;;;;;6720553;88;20209;-79
2022/07/10 10:42:45;;;;;;;5.75;2.40;;;20.70;99.90;;;;;;6728031;88;20233;-80
2022/07/10 10:53:01;;;;;;;8.35;2.42;;;20.00;99.90;;;;;;6734806;88;20189;-83
2022/07/10 11:03:28;;;;;;;6.22;2.00;;;19.40;99.90;;;;;;6739771;88;20180;-80
2022/07/10 11:13:31;;;;;;;4.37;1.40;;;19.30;99.90;;;;;;6736625;88;20298;-80
2022/07/10 11:24:10;;;;;;;5.40;2.13;;;18.40;99.90;;;;;;6739167;88;20189;-81
2022/07/10 11:34:11;;;;;;;4.00;2.20;;;18.50;99.90;;;;;;6739006;88;20532;-80
2022/07/10 11:44:16;;;;;;;4.22;1.77;;;18.10;99.90;;;;;;6738702;88;20228;-79
2022/07/10 11:54:18;;;;;;;3.50;1.50;;;18.50;99.90;;;;;;6734558;88;20210;-81
2022/07/10 12:14:22;;;;;;;5.45;3.50;;;18.60;99.90;;;;;;6763888;88;20204;-80
2022/07/10 12:24:24;;;;;;;5.50;2.90;;;18.30;99.90;;;;;;6751973;88;20199;-81
2022/07/10 12:34:47;;;;;;;5.10;2.50;;;18.20;99.90;;;;;;6744947;88;20187;-80
2022/07/10 12:44:47;;;;;;;8.13;2.30;;;18.30;99.90;;;;;;6731718;88;20159;-80
2022/07/10 12:54:48;;;;;;;7.40;1.98;;;18.00;99.90;;;;;;6731394;88;20163;-80
2022/07/10 13:04:53;;;;;;;4.47;2.20;;;18.00;99.90;;;;;;6731482;88;20178;-80
2022/07/10 13:14:54;;;;;;;5.18;2.60;;;18.00;99.90;;;;;;6733718;88;20183;-80
2022/07/10 13:24:55;;;;;;;4.32;2.30;;;18.10;99.90;;;;;;6734108;88;20176;-79
2022/07/10 13:34:55;;;;;;;6.25;3.70;;;18.00;99.90;;;;;;6731622;88;20650;-80
2022/07/10 13:44:56;;;;;;;6.32;3.67;;;17.70;99.90;;;;;;6733695;88;20202;-81
2022/07/10 13:54:56;;;;;;;12.05;6.72;;;17.40;99.90;;;;;;6733582;88;20166;-81
2022/07/10 14:04:57;;;;;;;9.40;6.60;;;17.50;99.90;;;;;;6732932;88;20221;-80
2022/07/10 14:14:58;;;;;;;6.93;4.32;;;17.60;99.90;;;;;;6716709;88;20198;-79
2022/07/10 14:25:00;;;;;;;16.33;7.97;;;17.60;99.90;;;;;;6732154;88;20245;-80
2022/07/10 14:35:00;;;;;;;15.90;8.75;;;18.00;99.90;;;;;;6697349;88;20248;-79
2022/07/10 14:45:01;;;;;;;23.60;11.25;;;17.50;99.90;;;;;;6730343;88;20894;-80
2022/07/10 14:55:02;;;;;;;4.22;2.37;;;17.70;99.90;;;;;;6732375;88;20282;-79
2022/07/10 15:05:03;;;;;;;4.80;2.37;;;18.90;99.90;;;;;;6731692;88;20230;-80
2022/07/10 15:15:09;;;;;;;7.78;2.22;;;19.80;99.90;;;;;;6747105;88;20222;-80
2022/07/10 15:25:10;;;;;;;4.10;2.05;;;20.20;99.90;;;;;;6730985;88;20142;-80
2022/07/10 15:35:10;;;;;;;6.57;2.22;;;20.60;99.90;;;;;;6731011;88;20207;-79
2022/07/10 15:45:11;;;;;;;4.90;2.20;;;20.70;99.90;;;;;;6731278;88;20204;-80
2022/07/10 15:55:13;;;;;;;4.75;2.33;;;20.20;99.90;;;;;;6727212;88;20762;-80
2022/07/10 16:05:13;;;;;;;5.97;2.28;;;20.20;99.90;;;;;;6727320;88;20174;-80
2022/07/10 16:15:14;;;;;;;5.93;2.30;;;19.80;99.90;;;;;;6730172;88;20214;-80
2022/07/10 16:35:33;;;;;;;6.93;2.62;;;19.80;99.90;;;;;;6730667;88;20216;-80
2022/07/10 16:45:34;;;;;;;9.13;2.43;;;19.80;99.90;;;;;;6731422;88;20270;-80
2022/07/10 16:55:35;;;;;;;7.40;2.50;;;19.70;99.90;;;;;;6729762;88;21090;-80
2022/07/10 17:05:35;;;;;;;5.72;2.37;;;19.80;99.90;;;;;;6733572;88;20786;-82
2022/07/10 17:15:37;;;;;;;3.47;2.33;;;20.00;99.90;;;;;;6732702;88;20278;-80
2022/07/10 17:25:38;;;;;;;3.75;2.20;;;20.00;99.90;;;;;;6732608;88;20162;-81
2022/07/10 17:35:38;;;;;;;8.60;2.53;;;19.90;99.90;;;;;;6732379;88;20202;-81
2022/07/10 17:45:39;;;;;;;6.05;2.10;;;20.00;99.90;;;;;;6732596;88;20247;-80
2022/07/10 17:55:39;;;;;;;4.65;2.40;;;19.80;99.90;;;;;;6733971;88;20205;-82
2022/07/10 18:05:45;;;;;;;4.72;2.37;;;19.60;99.90;;;;;;6724320;88;20214;-80
2022/07/10 18:15:46;;;;;;;4.75;2.10;;;19.50;99.90;;;;;;6713597;88;20178;-80
2022/07/10 18:25:47;;;;;;;5.28;2.00;;;19.40;99.90;;;;;;6714465;88;20248;-81
2022/07/10 18:35:47;;;;;;;6.57;2.30;;;19.30;99.90;;;;;;6711185;88;20185;-79
2022/07/10 18:45:48;;;;;;;6.32;2.28;;;19.20;99.90;;;;;;6707842;88;20214;-79
2022/07/10 18:55:48;;;;;;;5.43;2.42;;;19.30;99.90;;;;;;6707625;88;20719;-80
2022/07/10 19:05:49;;;;;;;6.15;2.12;;;19.50;99.90;;;;;;6711016;88;20211;-80
2022/07/10 19:15:50;;;;;;;4.57;2.53;;;19.20;99.90;;;;;;6713595;88;20267;-81
2022/07/10 19:25:51;;;;;;;5.20;2.50;;;19.30;99.90;;;;;;6714757;88;20281;-82
2022/07/10 19:35:52;;;;;;;6.18;2.50;;;19.30;99.90;;;;;;6716932;88;20174;-81
2022/07/10 19:45:52;;;;;;;8.38;2.60;;;19.30;99.90;;;;;;6714597;88;20257;-81
2022/07/10 19:55:53;;;;;;;7.97;2.60;;;19.10;99.90;;;;;;6713215;88;20177;-80
2022/07/10 20:05:53;;;;;;;7.22;2.40;;;19.20;99.90;;;;;;6714527;88;20754;-80
2022/07/10 20:15:54;;;;;;;5.68;2.70;;;19.00;99.90;;;;;;6712020;88;20944;-80
2022/07/10 20:25:54;;;;;;;5.50;2.95;;;19.00;99.90;;;;;;6713012;88;20191;-80
2022/07/10 20:46:14;;;;;;;5.40;2.70;;;19.10;99.90;;;;;;6723117;88;20186;-78
2022/07/10 20:56:15;;;;;;;4.15;2.20;;;19.00;99.90;;;;;;6717954;88;20209;-78
2022/07/10 21:06:15;;;;;;;4.50;2.50;;;18.90;99.90;;;;;;6710279;88;20181;-79
2022/07/10 21:16:16;;;;;;;4.30;2.20;;;18.80;99.90;;;;;;6723836;88;20312;-79
2022/07/10 21:26:17;;;;;;;4.63;2.50;;;18.50;99.90;;;;;;6725747;88;20193;-79
2022/07/10 21:36:18;;;;;;;4.95;2.55;;;18.50;99.90;;;;;;6717165;88;20208;-77
2022/07/10 21:46:19;;;;;;;5.00;2.65;;;18.60;99.90;;;;;;6723585;88;20253;-80
2022/07/10 21:56:20;;;;;;;4.93;2.40;;;18.60;99.90;;;;;;6727060;88;20202;-80
2022/07/10 22:06:20;;;;;;;5.10;2.67;;;18.40;99.90;;;;;;6728093;88;20240;-80
2022/07/10 22:16:21;;;;;;;6.43;2.47;;;18.50;99.90;;;;;;6724579;88;20340;-79
2022/07/10 22:26:21;;;;;;;4.90;2.50;;;18.50;99.90;;;;;;6725301;88;20332;-80
2022/07/10 22:36:24;;;;;;;2.97;2.08;;;18.50;99.90;;;;;;6728838;88;21059;-80
2022/07/10 22:46:24;;;;;;;4.25;1.85;;;18.40;99.90;;;;;;6725073;88;20247;-80
2022/07/10 22:56:25;;;;;;;5.03;2.42;;;18.50;99.90;;;;;;6721867;88;20782;-79
2022/07/10 23:06:26;;;;;;;4.47;2.10;;;18.50;99.90;;;;;;6711782;88;20318;-79
2022/07/10 23:16:26;;;;;;;3.75;2.12;;;18.70;99.90;;;;;;6721583;88;20249;-80
2022/07/10 23:26:27;;;;;;;4.28;2.08;;;18.40;99.90;;;;;;6729259;88;20223;-79
2022/07/10 23:36:27;;;;;;;5.22;2.15;;;18.20;99.90;;;;;;6722223;88;20710;-79
2022/07/10 23:46:28;;;;;;;4.75;2.05;;;18.60;99.90;;;;;;6723876;88;20372;-79
2022/07/10 23:56:28;;;;;;;5.00;1.87;;;18.40;99.90;;;;;;6727711;88;20205;-80
